GAME #2735

SERVER 1

Game ran from 21/07/2020 04:23 through 22/07/2020 06:25

Final Result

1st cicada 3301 Transport
Managed by: cicada 3301

2nd MrSan Transport
Managed by: MrSan

3rd gt Transport
Managed by: gt

29 companies participated


Company Scoreboard Winner determined by maximum company value


Pos ID Company Name Manager(s) Operating Period Value Income Cash Cargo
185589cicada 3301 Transportcicada 330121/07/2020 05:04 > 22/07/2020 06:25£2,620,454,404£314,320,465£2,630,372,47640951
285593MrSan TransportMrSan21/07/2020 07:07 > 22/07/2020 06:25£1,519,459,348£46,550,097£1,519,604,59123182
385590gt Transportgt21/07/2020 05:59 > 21/07/2020 21:31£1,477,506,079£32,969,167£1,476,327,60520100
485600Dutch TransportDutch21/07/2020 10:33 > 21/07/2020 20:50£735,086,951£32,942,304£739,574,21414765
585591Colorato TransportColorato21/07/2020 06:26 > 21/07/2020 22:39£603,791,162£17,692,422£606,392,74319461
685599Dutch TransportMrLogano21/07/2020 10:19 > 22/07/2020 03:27£232,486,542£100,607,404£233,087,8799033
785612Crymson TransportCrymson21/07/2020 22:12 > 22/07/2020 06:25£196,704,207£9,096,373£199,494,21335198
885594ninjaFM TransportninjaFM21/07/2020 07:21 > 21/07/2020 21:58£161,705,779£4,964,152£161,705,94215956
985609Asdew TransportAsdew21/07/2020 20:36 > 21/07/2020 21:03£40,045,984£39,999,902£40,000,6891426
1085602MrSan #1 TransportThe Real fjack12521/07/2020 11:00 > 21/07/2020 19:27£32,886,824£1,352,304£32,965,9006725
1185601Stsrkiller TransportTyro21/07/2020 10:46 > 21/07/2020 18:05£22,423,540£1,140,928£22,307,2562275
1285598TrahahansportA. Campbell21/07/2020 10:05 > 21/07/2020 18:46£14,185,729£578,998£14,116,6642266
1385611Timmeh TransportTimmeh21/07/2020 21:58 > 22/07/2020 04:08£13,031,033£702,954£12,971,0773568
1485597Busses and Trains Co.T. Black21/07/2020 10:05 > 21/07/2020 20:36£3,863,459£297,768£3,954,4071792
1585604VanKertis TransportVanKertis21/07/2020 11:14 > 21/07/2020 18:46£3,257,888£134,758£3,123,3973033
1685606NightShade CompanyNightShade21/07/2020 13:17 > 21/07/2020 20:22£2,434,476£129,063£2,422,934460
1785595Experimental Military LogisticW. Jones21/07/2020 08:29 > 21/07/2020 20:22£1,147,851£219,944£1,418,3996027
1885608MobiusEagle TransportMobiusEagle21/07/2020 18:33 > 22/07/2020 00:15£1,050,266£388,012£1,282,2312994
1985607Player TransportPlayer21/07/2020 15:07 > 21/07/2020 22:26£1,032,926£68,050£1,022,705396
2085605=Soviet Republic=Pruhava21/07/2020 13:17 > 21/07/2020 14:53£906,680£311,787£1,036,6981325
2185610frutiemax Transportfrutiemax21/07/2020 21:03 > 21/07/2020 21:45£471,464£212,676£226,473864
2285592Tempo TransportTento21/07/2020 06:53 > 21/07/2020 10:19£367,477£61,305£123,8084475
2385596<Donder> Transport<Donder>21/07/2020 10:05 > 21/07/2020 10:33£24,456£-58,990£37,176847
2485616Tento TransportTento22/07/2020 03:55 > 22/07/2020 04:08£17,275£-137,203£162,4140
2585617gt Transportgt22/07/2020 05:31 > 22/07/2020 06:25£12,696£37£67,591166
2685614Player Transport<guy>22/07/2020 01:51 > 22/07/2020 06:25£1£9,349£225,748290
2785603Kitzzman TransportKitzzman21/07/2020 11:00 > 21/07/2020 11:28£1£-958£99,0420
2885615UnnamedN. E. Thomson22/07/2020 01:51 > 22/07/2020 02:05£0£0£100,0000
2985613Player TransportPlayer22/07/2020 00:15 > 22/07/2020 00:29£0£-192£99,8080